Terminal Aerodrome Forecast
Issued by NWS

Home | Current Version | Previous Version | Text Only | Print | Product List | Glossary On
Versions: 1 2 3 4 5 6 7 8 9 10 11 12 13 14 15 16 17 18 19 20
000
FTUS41 KCAR 241100
TAFPQI
TAF
KPQI 241123Z 2412/2512 01011KT P6SM -RA SCT025 OVC070
     FM241400 36011KT P6SM -RA OVC025
     FM241600 36011KT 5SM -RA OVC015
     FM241700 36011KT P6SM -RA OVC025
     FM242300 35010KT P6SM -SHRA OVC025
     FM250400 35006KT P6SM OVC025
      AMD LTD TO CLD VIS AND WIND=

USA.gov is the U.S. government's official web portal to all federal, state and local government web resources and services.